Time;durP1;ratioP1;P1;durP2;ratioP2;P2;SDS_P1;SDS_P2;PMS_P1;PMS_P2;Temp;Humidity;BMP_temperature;BMP_pressure;BME280_temperature;BME280_humidity;BME280_pressure;Samples;Min_cycle;Max_cycle;Signal;HPM_P1;HPM_P2
2022/12/12 00:00:52;;;;;;;0.20;0.20;;;-0.30;99.90;;;-0.50;100.00;99637.94;4840314;29;20343;-81
2022/12/12 00:03:19;;;;;;;0.32;0.32;;;0.40;99.90;;;-0.53;100.00;99630.91;4849307;29;20310;-80
2022/12/12 00:05:47;;;;;;;0.30;0.30;;;0.00;99.90;;;-0.55;100.00;99632.56;4853626;29;20233;-80
2022/12/12 00:08:14;;;;;;;0.20;0.20;;;-0.30;99.90;;;-0.53;100.00;99632.63;4857925;29;20286;-81
2022/12/12 00:10:41;;;;;;;0.10;0.10;;;-0.20;99.90;;;-0.59;100.00;99629.78;4857587;29;20233;-80
2022/12/12 00:13:08;;;;;;;0.10;0.10;;;-0.30;99.90;;;-0.62;100.00;99627.94;4868073;29;20257;-80
2022/12/12 00:15:35;;;;;;;0.70;0.70;;;0.10;99.90;;;-0.63;100.00;99633.97;4862249;29;20317;-80
2022/12/12 00:18:02;;;;;;;0.30;0.30;;;-0.40;99.90;;;-0.57;100.00;99633.34;4870726;29;20251;-77
2022/12/12 00:20:30;;;;;;;0.82;0.82;;;-0.40;99.90;;;-0.59;100.00;99640.19;4864735;29;20253;-81
2022/12/12 00:22:57;;;;;;;0.20;0.20;;;0.50;99.90;;;-0.67;100.00;99632.06;4848850;29;20264;-81
2022/12/12 00:25:24;;;;;;;0.20;0.20;;;-0.40;99.90;;;-0.66;100.00;99642.53;4862248;29;20288;-81
2022/12/12 00:27:51;;;;;;;0.77;0.77;;;0.30;99.90;;;-0.63;100.00;99641.75;4852017;29;20320;-80
2022/12/12 00:30:18;;;;;;;0.10;0.10;;;-0.10;99.90;;;-0.62;100.00;99640.06;4857669;29;20267;-81
2022/12/12 00:32:45;;;;;;;0.20;0.20;;;-0.40;99.90;;;-0.66;100.00;99645.13;4858290;29;20319;-81
2022/12/12 00:35:14;;;;;;;0.20;0.20;;;0.10;99.90;;;-0.65;100.00;99651.19;4981336;23;20235;-76
2022/12/12 00:37:41;;;;;;;0.10;0.10;;;-0.40;99.90;;;-0.64;100.00;99645.19;4912192;29;20231;-77
2022/12/12 00:40:09;;;;;;;0.15;0.15;;;0.60;99.90;;;-0.67;100.00;99645.94;4897317;29;20307;-76
2022/12/12 00:42:36;;;;;;;0.17;0.17;;;-0.50;99.90;;;-0.70;100.00;99650.13;4913105;29;20229;-76
2022/12/12 00:45:03;;;;;;;0.73;0.73;;;-0.50;99.90;;;-0.75;100.00;99642.16;4913456;29;20227;-76
2022/12/12 00:47:31;;;;;;;0.52;0.52;;;-0.50;99.90;;;-0.76;100.00;99648.16;4911562;29;20227;-76
2022/12/12 00:49:58;;;;;;;0.95;0.95;;;0.20;99.90;;;-0.75;100.00;99656.84;4915643;29;20235;-77
2022/12/12 00:52:25;;;;;;;0.25;0.25;;;-0.50;99.90;;;-0.82;100.00;99650.50;4912266;29;20318;-75
2022/12/12 00:54:51;;;;;;;0.10;0.10;;;-0.50;99.90;;;-0.75;100.00;99655.13;4894284;29;20323;-75
2022/12/12 00:57:18;;;;;;;0.40;0.40;;;-0.50;99.90;;;-0.80;100.00;99654.06;4915329;29;20240;-77
2022/12/12 00:59:45;;;;;;;0.10;0.10;;;-0.50;99.90;;;-0.80;100.00;99647.97;4911735;29;20334;-77
2022/12/12 01:02:12;;;;;;;0.10;0.10;;;-0.60;99.90;;;-0.76;100.00;99653.34;4897804;29;20314;-77
2022/12/12 01:04:39;;;;;;;0.10;0.10;;;-0.50;99.90;;;-0.78;100.00;99652.41;4917026;29;20392;-74
2022/12/12 01:07:06;;;;;;;0.10;0.10;;;0.40;99.90;;;-0.75;100.00;99659.44;4893403;29;20230;-74
2022/12/12 01:09:33;;;;;;;0.20;0.20;;;0.00;99.90;;;-0.79;100.00;99660.13;4913927;29;20237;-75
2022/12/12 01:12:01;;;;;;;0.10;0.10;;;-0.50;99.90;;;-0.78;100.00;99661.91;4911813;29;20246;-76
2022/12/12 01:14:28;;;;;;;0.20;0.20;;;0.00;99.90;;;-0.81;100.00;99664.38;4893142;29;20322;-77
2022/12/12 01:16:55;;;;;;;0.20;0.20;;;-0.50;99.90;;;-0.77;100.00;99672.34;4903133;29;20226;-76
2022/12/12 01:19:22;;;;;;;0.10;0.10;;;-0.20;99.90;;;-0.78;100.00;99677.47;4910286;29;20238;-75
2022/12/12 01:21:49;;;;;;;0.20;0.20;;;-0.50;99.90;;;-0.80;100.00;99673.94;4917164;29;20590;-74
2022/12/12 01:24:15;;;;;;;0.20;0.20;;;-0.60;99.90;;;-0.84;100.00;99664.25;4911488;29;20230;-74
2022/12/12 01:26:43;;;;;;;0.10;0.10;;;-0.60;99.90;;;-0.89;100.00;99670.94;4912719;29;20239;-77
2022/12/12 01:29:10;;;;;;;0.20;0.20;;;-0.60;99.90;;;-0.94;100.00;99668.16;4911148;29;20262;-77
2022/12/12 01:31:37;;;;;;;0.30;0.30;;;0.30;99.90;;;-1.01;100.00;99667.03;4917150;29;20322;-75
2022/12/12 01:34:04;;;;;;;0.10;0.10;;;-0.20;99.90;;;-1.04;100.00;99666.88;4911377;29;20231;-75
2022/12/12 01:36:31;;;;;;;1.15;1.15;;;-0.80;99.90;;;-1.12;100.00;99670.88;4916703;29;20255;-75
2022/12/12 01:38:59;;;;;;;0.20;0.20;;;-0.80;99.90;;;-1.19;100.00;99662.75;4908704;29;20240;-74
2022/12/12 01:41:27;;;;;;;0.20;0.20;;;-0.90;99.90;;;-1.19;100.00;99663.63;4904786;29;20240;-74
2022/12/12 01:43:54;;;;;;;0.10;0.10;;;-0.70;99.90;;;-1.24;100.00;99667.75;4909209;29;20295;-74
2022/12/12 01:46:30;;;;;;;0.20;0.20;;;-0.90;99.90;;;-1.26;100.00;99661.59;4909337;29;20235;-75
2022/12/12 01:49:14;;;;;;;0.20;0.20;;;-1.00;99.90;;;-1.35;100.00;99661.16;4892144;29;20238;-74
2022/12/12 01:51:42;;;;;;;0.20;0.20;;;-1.10;99.90;;;-1.38;100.00;99668.81;4906390;29;20237;-74
2022/12/12 01:54:22;;;;;;;0.30;0.30;;;-1.20;99.90;;;-1.45;100.00;99665.06;4918519;29;20238;-74
2022/12/12 01:56:50;;;;;;;0.20;0.20;;;-1.10;99.90;;;-1.48;100.00;99661.44;4892014;29;20325;-74
2022/12/12 01:59:22;;;;;;;0.50;0.50;;;-1.20;99.90;;;-1.54;100.00;99663.78;4900699;29;20322;-74
2022/12/12 02:01:50;;;;;;;0.47;0.47;;;-0.90;99.90;;;-1.53;100.00;99665.53;4890033;29;20241;-74
2022/12/12 02:04:18;;;;;;;1.30;1.30;;;-1.30;99.90;;;-1.60;100.00;99659.19;4895864;29;20227;-76
2022/12/12 02:06:46;;;;;;;0.47;0.47;;;-1.30;99.90;;;-1.63;100.00;99654.78;4900862;29;20234;-77
2022/12/12 02:09:15;;;;;;;0.20;0.20;;;-1.30;99.90;;;-1.64;100.00;99654.69;4909631;29;20247;-77
2022/12/12 02:11:47;;;;;;;0.10;0.10;;;-1.40;99.90;;;-1.68;100.00;99658.84;4901892;29;20829;-77
2022/12/12 02:14:26;;;;;;;0.20;0.20;;;-1.40;99.90;;;-1.78;100.00;99654.09;4912832;29;20314;-78
2022/12/12 02:17:32;;;;;;;0.20;0.20;;;-1.50;99.90;;;-1.83;100.00;99653.00;4908888;29;20266;-76
2022/12/12 02:20:25;;;;;;;0.20;0.20;;;-1.50;99.90;;;-1.79;100.00;99657.50;4918984;29;20326;-76
2022/12/12 02:23:23;;;;;;;0.10;0.10;;;-1.60;99.90;;;-1.88;100.00;99659.66;4914670;29;20425;-78
2022/12/12 02:26:37;;;;;;;0.10;0.10;;;-1.60;99.90;;;-1.91;100.00;99650.88;4900443;29;20313;-76
2022/12/12 02:29:35;;;;;;;0.20;0.20;;;-1.60;99.90;;;-1.95;100.00;99650.72;4887160;29;20293;-76
2022/12/12 02:32:20;;;;;;;0.20;0.20;;;-1.60;99.90;;;-1.98;100.00;99644.50;4915368;29;20256;-77
2022/12/12 02:35:34;;;;;;;0.57;0.57;;;-1.70;99.90;;;-1.98;100.00;99645.41;4920642;29;20258;-77
2022/12/12 02:38:26;;;;;;;0.47;0.47;;;-1.70;99.90;;;-2.01;100.00;99641.78;4900997;29;20420;-78
2022/12/12 02:41:22;;;;;;;0.20;0.20;;;-1.70;99.90;;;-2.03;100.00;99644.31;4905728;29;20262;-76
2022/12/12 02:44:25;;;;;;;0.20;0.20;;;-1.70;99.90;;;-2.09;100.00;99648.31;4894545;29;20310;-78
2022/12/12 02:47:08;;;;;;;0.10;0.10;;;-1.80;99.90;;;-2.04;100.00;99655.47;4894180;29;20290;-78
2022/12/12 02:50:07;;;;;;;0.13;0.13;;;-1.80;99.90;;;-2.11;100.00;99660.31;4891792;29;20295;-78
2022/12/12 02:52:35;;;;;;;0.10;0.10;;;-1.90;99.90;;;-2.14;100.00;99648.09;4899387;29;20231;-77
2022/12/12 02:55:04;;;;;;;0.20;0.20;;;-1.80;99.90;;;-2.18;100.00;99650.47;4920758;29;20227;-76
2022/12/12 02:57:32;;;;;;;0.20;0.20;;;-1.90;99.90;;;-2.16;100.00;99654.91;4901263;29;20310;-76
2022/12/12 03:00:13;;;;;;;1.33;1.33;;;-1.10;99.90;;;-2.17;100.00;99655.72;4918850;29;20719;-78
2022/12/12 03:09:51;;;;;;;0.20;0.20;;;-2.00;99.90;;;-2.35;100.00;99652.28;4902809;29;20231;-76
2022/12/12 03:13:04;;;;;;;0.20;0.20;;;-2.00;99.90;;;-2.40;100.00;99652.06;4867505;29;20306;-75
2022/12/12 03:15:57;;;;;;;0.20;0.20;;;-2.10;99.90;;;-2.43;100.00;99644.16;4896327;29;20314;-77
2022/12/12 03:18:52;;;;;;;0.20;0.20;;;-2.10;99.90;;;-2.54;100.00;99645.34;4908607;29;20243;-78
2022/12/12 03:21:53;;;;;;;0.20;0.20;;;-2.20;99.90;;;-2.60;100.00;99645.94;4915059;29;20307;-74
2022/12/12 03:24:39;;;;;;;0.10;0.10;;;-2.30;99.90;;;-2.55;100.00;99656.50;4895826;29;20238;-75
2022/12/12 03:27:17;;;;;;;0.10;0.10;;;-2.30;99.90;;;-2.59;100.00;99649.41;4893236;29;20391;-74
2022/12/12 03:30:15;;;;;;;0.45;0.45;;;-2.20;99.90;;;-2.60;100.00;99648.53;4911564;29;20302;-74
2022/12/12 03:32:58;;;;;;;0.10;0.10;;;-2.30;99.90;;;-2.65;100.00;99646.50;4909299;29;20319;-74
2022/12/12 03:35:55;;;;;;;0.20;0.20;;;-1.20;99.90;;;-2.63;100.00;99648.34;4890046;29;20321;-74
2022/12/12 03:38:30;;;;;;;0.10;0.10;;;-2.30;99.90;;;-2.65;100.00;99651.66;4898832;29;20227;-76
2022/12/12 03:41:02;;;;;;;0.28;0.28;;;-2.30;99.90;;;-2.59;100.00;99659.75;4897523;29;20253;-77
2022/12/12 03:43:34;;;;;;;0.20;0.20;;;-2.30;99.90;;;-2.51;100.00;99662.72;4903792;29;20258;-76
2022/12/12 03:46:20;;;;;;;0.17;0.17;;;-2.30;99.90;;;-2.44;100.00;99664.78;4895661;29;20259;-77
2022/12/12 03:49:00;;;;;;;0.20;0.20;;;-2.20;99.90;;;-2.45;100.00;99669.06;4899016;29;20251;-74
2022/12/12 03:51:30;;;;;;;0.20;0.20;;;-2.20;99.90;;;-2.50;100.00;99660.22;4911274;29;20431;-74
2022/12/12 03:54:05;;;;;;;0.20;0.20;;;-2.20;99.90;;;-2.39;100.00;99677.13;4916817;29;20341;-74
2022/12/12 03:56:51;;;;;;;0.73;0.73;;;-2.10;99.90;;;-2.41;100.00;99676.19;4904517;29;20231;-75
2022/12/12 03:59:39;;;;;;;0.10;0.10;;;-1.50;99.90;;;-2.45;100.00;99668.19;4891815;29;20243;-77
2022/12/12 04:02:20;;;;;;;0.20;0.20;;;-2.20;99.90;;;-2.46;100.00;99667.31;4893116;29;20251;-78
2022/12/12 04:05:01;;;;;;;0.20;0.20;;;-2.20;99.90;;;-2.39;100.00;99679.72;4907332;29;20719;-76
2022/12/12 04:07:58;;;;;;;0.20;0.20;;;-2.10;99.90;;;-2.29;100.00;99678.47;4897497;29;20322;-78
2022/12/12 04:14:00;;;;;;;0.10;0.10;;;-2.00;99.90;;;-2.31;100.00;99660.25;4890924;29;20235;-78
2022/12/12 04:16:32;;;;;;;0.10;0.10;;;-2.00;99.90;;;-2.32;100.00;99671.44;4902308;29;20254;-76
2022/12/12 04:23:13;;;;;;;0.13;0.13;;;-2.00;99.90;;;-2.36;100.00;99666.94;4901166;29;20235;-78
2022/12/12 04:25:08;;;;;;;0.20;0.20;;;-2.10;99.90;;;-2.32;100.00;99675.72;4892004;29;20239;-78
2022/12/12 04:27:43;;;;;;;0.98;0.98;;;-2.10;99.90;;;-2.32;100.00;99678.31;4896700;29;20235;-76
2022/12/12 04:30:14;;;;;;;0.10;0.10;;;-2.10;99.90;;;-2.26;100.00;99676.91;4916474;29;20242;-76
2022/12/12 04:33:04;;;;;;;0.50;0.50;;;-2.00;99.90;;;-2.31;100.00;99659.38;4884833;29;20228;-76
2022/12/12 04:35:54;;;;;;;0.15;0.15;;;-2.00;99.90;;;-2.28;100.00;99654.34;4896771;29;20342;-76
2022/12/12 04:38:24;;;;;;;0.10;0.10;;;-2.00;99.90;;;-2.27;100.00;99657.00;4915730;29;20322;-78
2022/12/12 04:40:54;;;;;;;0.20;0.20;;;-2.00;99.90;;;-2.20;100.00;99657.28;4917699;29;20290;-77
2022/12/12 04:43:43;;;;;;;0.17;0.17;;;-2.00;99.90;;;-2.21;100.00;99647.75;4911366;29;20258;-75
2022/12/12 04:46:15;;;;;;;0.20;0.20;;;-1.90;99.90;;;-2.14;100.00;99658.47;4896045;29;20767;-75
2022/12/12 04:48:58;;;;;;;0.13;0.13;;;-1.90;99.90;;;-2.15;100.00;99648.91;4886646;29;20318;-77
2022/12/12 04:51:34;;;;;;;0.20;0.20;;;-1.90;99.90;;;-2.21;100.00;99637.38;4893770;29;20227;-76
2022/12/12 04:54:19;;;;;;;0.20;0.20;;;-1.20;99.90;;;-2.28;100.00;99642.28;4895199;29;20241;-77
2022/12/12 04:56:53;;;;;;;0.20;0.20;;;-2.00;99.90;;;-2.29;100.00;99643.09;4879417;29;20231;-77
2022/12/12 04:59:21;;;;;;;0.20;0.20;;;-2.00;99.90;;;-2.35;100.00;99641.91;4913887;29;20239;-77
2022/12/12 05:01:58;;;;;;;0.10;0.10;;;-2.00;99.90;;;-2.43;100.00;99641.56;4897562;29;20241;-76
2022/12/12 05:04:52;;;;;;;0.20;0.20;;;-2.20;99.90;;;-2.47;100.00;99646.53;4896540;29;20302;-77
2022/12/12 05:07:30;;;;;;;0.10;0.10;;;-2.20;99.90;;;-2.41;100.00;99649.41;4901617;29;20266;-76
2022/12/12 05:10:10;;;;;;;0.20;0.20;;;-2.20;99.90;;;-2.49;100.00;99650.75;4881794;29;20685;-77
2022/12/12 05:12:48;;;;;;;0.20;0.20;;;-2.20;99.90;;;-2.48;100.00;99661.16;4905186;29;20262;-76
2022/12/12 05:15:18;;;;;;;0.20;0.20;;;-2.30;99.90;;;-2.48;100.00;99662.88;4892506;29;20261;-78
2022/12/12 05:20:37;;;;;;;0.20;0.20;;;-2.20;99.90;;;-2.48;100.00;99671.53;4864683;29;20232;-84
2022/12/12 05:23:04;;;;;;;0.25;0.25;;;-2.20;99.90;;;-2.43;100.00;99674.34;4874273;29;20296;-83
2022/12/12 05:25:32;;;;;;;0.25;0.25;;;-2.20;99.90;;;-2.56;100.00;99674.56;4876096;29;20264;-83
2022/12/12 05:27:59;;;;;;;0.20;0.20;;;-2.30;99.90;;;-2.58;100.00;99684.84;4873500;29;20263;-83
2022/12/12 05:30:26;;;;;;;0.20;0.20;;;-2.30;99.90;;;-2.59;100.00;99683.94;4869448;29;20339;-83
2022/12/12 05:32:53;;;;;;;0.20;0.20;;;-2.30;99.90;;;-2.61;100.00;99687.25;4874287;29;20406;-83
2022/12/12 05:35:21;;;;;;;0.20;0.20;;;-2.30;99.90;;;-2.62;100.00;99685.47;4878428;29;20296;-80
2022/12/12 05:37:49;;;;;;;0.88;0.82;;;-2.40;99.90;;;-2.78;100.00;99680.34;4854038;29;20257;-81
2022/12/12 05:40:19;;;;;;;0.20;0.20;;;-2.40;99.90;;;-2.76;100.00;99689.06;4872152;29;20265;-83
2022/12/12 05:42:47;;;;;;;0.10;0.10;;;-2.50;99.90;;;-2.83;100.00;99685.28;4872399;29;20256;-84
2022/12/12 05:49:04;;;;;;;0.20;0.20;;;-2.50;99.90;;;-2.70;100.00;99704.91;4832244;29;20289;-79
2022/12/12 05:51:31;;;;;;;0.20;0.20;;;-2.40;99.90;;;-2.73;100.00;99703.03;4876191;29;20592;-80
2022/12/12 05:53:59;;;;;;;0.10;0.10;;;-2.40;99.90;;;-2.78;100.00;99696.75;4876068;29;20260;-80
2022/12/12 05:56:26;;;;;;;0.10;0.10;;;-2.50;99.90;;;-2.83;100.00;99695.66;4878130;29;20256;-80
2022/12/12 05:58:53;;;;;;;0.20;0.20;;;-2.60;99.90;;;-2.88;100.00;99697.09;4874647;29;20241;-80
2022/12/12 06:01:20;;;;;;;0.20;0.20;;;-2.60;99.90;;;-2.94;100.00;99696.81;4870249;29;20260;-79
2022/12/12 06:03:47;;;;;;;0.20;0.20;;;-2.60;99.90;;;-2.94;100.00;99699.38;4877566;29;20267;-80
2022/12/12 06:06:14;;;;;;;0.20;0.20;;;-2.50;99.90;;;-3.01;100.00;99686.97;4877170;29;20240;-80
2022/12/12 06:08:41;;;;;;;0.40;0.40;;;-1.60;99.90;;;-3.07;100.00;99689.25;4875394;29;20260;-80
2022/12/12 06:11:09;;;;;;;0.20;0.20;;;-2.80;99.90;;;-3.06;100.00;99693.59;4869642;29;20232;-83
2022/12/12 06:13:36;;;;;;;0.20;0.20;;;-2.70;99.90;;;-3.15;100.00;99694.03;4876481;29;20299;-82
2022/12/12 06:16:14;;;;;;;0.45;0.45;;;-2.80;99.90;;;-3.09;100.00;99703.78;4876665;29;20319;-79
2022/12/12 06:18:41;;;;;;;0.20;0.20;;;-2.70;99.90;;;-3.06;100.00;99703.94;4857499;29;20250;-78
2022/12/12 06:21:11;;;;;;;0.20;0.20;;;-2.80;99.90;;;-3.09;100.00;99712.44;4869787;29;20256;-80
2022/12/12 06:23:41;;;;;;;0.20;0.20;;;-2.20;99.90;;;-3.02;100.00;99709.34;4864879;29;20235;-81
2022/12/12 06:26:11;;;;;;;0.20;0.20;;;-1.80;99.90;;;-3.06;100.00;99709.13;4879045;29;20232;-80
2022/12/12 06:28:39;;;;;;;0.10;0.10;;;-2.80;99.90;;;-3.12;100.00;99712.28;4875602;29;20259;-78
2022/12/12 06:31:08;;;;;;;0.32;0.32;;;-2.60;99.90;;;-3.07;100.00;99707.34;4874336;29;20225;-82
2022/12/12 06:33:39;;;;;;;0.20;0.20;;;-2.20;99.90;;;-3.10;100.00;99708.06;4870598;29;20236;-82
2022/12/12 06:36:15;;;;;;;0.20;0.20;;;-1.60;99.90;;;-3.10;100.00;99702.91;4870876;29;20240;-83
2022/12/12 06:38:42;;;;;;;0.55;0.55;;;-2.90;99.90;;;-3.28;100.00;99695.09;4883133;29;20305;-82
2022/12/12 06:41:13;;;;;;;0.20;0.20;;;-3.00;99.90;;;-3.24;100.00;99703.88;4874817;29;20626;-80
2022/12/12 06:43:43;;;;;;;0.20;0.20;;;-3.00;99.90;;;-3.30;100.00;99701.88;4859422;29;20236;-79
2022/12/12 06:46:35;;;;;;;0.20;0.20;;;-3.00;99.90;;;-3.32;100.00;99700.91;4877101;29;20811;-78
2022/12/12 06:49:08;;;;;;;0.20;0.20;;;-3.00;99.90;;;-3.41;100.00;99696.97;4877031;29;20235;-78
2022/12/12 06:51:42;;;;;;;0.20;0.20;;;-2.10;99.90;;;-3.33;100.00;99706.00;4880027;29;20256;-78
2022/12/12 06:54:12;;;;;;;0.20;0.20;;;-2.90;99.90;;;-3.33;100.00;99708.59;4878800;29;20254;-78
2022/12/12 06:56:40;;;;;;;0.20;0.20;;;-3.00;99.90;;;-3.35;100.00;99716.25;4879150;29;20287;-78
2022/12/12 06:59:15;;;;;;;0.20;0.20;;;-3.00;99.90;;;-3.38;100.00;99715.22;4881136;29;20316;-80
2022/12/12 07:01:43;;;;;;;0.20;0.20;;;-3.10;99.90;;;-3.20;100.00;99731.69;4875950;29;20236;-78
2022/12/12 07:04:12;;;;;;;0.20;0.20;;;-3.00;99.90;;;-3.29;100.00;99726.91;4875409;29;20251;-81
2022/12/12 07:06:39;;;;;;;0.20;0.20;;;-3.00;99.90;;;-3.27;100.00;99727.00;4878749;29;20262;-80
2022/12/12 07:09:07;;;;;;;0.20;0.20;;;-3.10;99.90;;;-3.31;100.00;99733.72;4874538;29;20233;-82
2022/12/12 07:11:34;;;;;;;0.20;0.20;;;-1.90;99.90;;;-3.37;100.00;99725.63;4877656;29;20236;-78
2022/12/12 07:14:04;;;;;;;0.20;0.20;;;-2.20;99.90;;;-3.30;100.00;99738.06;4874793;29;20280;-78
2022/12/12 07:16:31;;;;;;;0.20;0.20;;;-2.30;99.90;;;-3.33;100.00;99742.19;4873039;29;20324;-78
2022/12/12 07:18:58;;;;;;;0.40;0.40;;;-3.10;99.90;;;-3.34;100.00;99745.59;4872843;29;20290;-78
2022/12/12 07:21:25;;;;;;;0.20;0.20;;;-2.30;99.90;;;-3.26;100.00;99752.94;4869268;29;20270;-78
2022/12/12 07:23:52;;;;;;;0.40;0.40;;;-3.00;99.90;;;-3.23;100.00;99754.78;4854703;29;20323;-78
2022/12/12 07:26:22;;;;;;;0.20;0.20;;;-3.00;99.90;;;-3.22;100.00;99762.63;4859420;29;20279;-77
2022/12/12 07:28:50;;;;;;;0.30;0.30;;;-2.00;99.90;;;-3.19;100.00;99769.66;4870237;29;20264;-78
2022/12/12 07:31:21;;;;;;;0.20;0.20;;;-2.90;99.90;;;-3.22;100.00;99762.63;4857412;29;20237;-78
2022/12/12 07:33:48;;;;;;;0.20;0.20;;;-2.90;99.90;;;-3.20;100.00;99775.63;4875288;29;20751;-78
2022/12/12 07:36:16;;;;;;;0.20;0.20;;;-2.90;99.90;;;-3.23;100.00;99772.91;4876533;29;20332;-78
2022/12/12 07:38:43;;;;;;;0.20;0.20;;;-2.00;99.90;;;-3.15;100.00;99776.78;4880573;29;20309;-80
2022/12/12 07:41:14;;;;;;;0.20;0.20;;;-2.90;99.90;;;-3.09;100.00;99792.59;4879572;29;20244;-82
2022/12/12 07:43:43;;;;;;;0.10;0.10;;;-1.80;99.90;;;-3.10;100.00;99784.78;4888506;29;20236;-80
2022/12/12 07:46:20;;;;;;;0.20;0.20;;;-2.80;99.90;;;-3.08;100.00;99788.31;4894978;29;20235;-81
2022/12/12 07:48:48;;;;;;;0.20;0.20;;;-1.70;99.90;;;-3.06;100.00;99790.19;4873822;29;20259;-80
2022/12/12 07:51:16;;;;;;;0.20;0.20;;;-1.80;99.90;;;-3.04;100.00;99791.16;4982616;23;20227;-67
2022/12/12 07:53:43;;;;;;;0.10;0.10;;;-2.80;99.90;;;-3.06;100.00;99792.78;4875674;29;20307;-67
2022/12/12 07:56:12;;;;;;;0.13;0.13;;;-2.80;99.90;;;-3.02;100.00;99796.41;4879302;29;20265;-67
2022/12/12 07:58:39;;;;;;;0.20;0.20;;;-2.80;99.90;;;-2.95;100.00;99812.31;4875285;29;20401;-67
2022/12/12 08:01:23;;;;;;;0.10;0.10;;;-2.70;99.90;;;-2.89;100.00;99819.50;4868647;29;20239;-67
2022/12/12 08:06:26;;;;;;;0.20;0.20;;;-2.60;99.90;;;-2.86;100.00;99822.25;5304560;23;20310;-78
2022/12/12 08:08:54;;;;;;;0.10;0.10;;;-2.20;99.90;;;-2.87;100.00;99825.66;4888494;29;20687;-75
2022/12/12 08:11:24;;;;;;;0.90;0.90;;;-2.60;99.90;;;-2.87;100.00;99825.66;4869462;29;20319;-75
2022/12/12 08:13:52;;;;;;;0.40;0.40;;;-2.60;99.90;;;-2.80;100.00;99835.53;4883959;29;20256;-75
2022/12/12 08:16:26;;;;;;;0.20;0.20;;;-2.50;99.90;;;-2.78;100.00;99833.00;4876760;29;20244;-76
2022/12/12 08:18:56;;;;;;;0.30;0.30;;;-1.60;99.90;;;-2.74;100.00;99843.59;4874868;29;20239;-75
2022/12/12 08:21:24;;;;;;;0.20;0.20;;;-2.50;99.90;;;-2.73;100.00;99841.91;4876568;29;20336;-75
2022/12/12 08:24:01;;;;;;;0.20;0.20;;;-2.40;99.90;;;-2.67;100.00;99847.38;4873767;29;20236;-75
2022/12/12 08:26:29;;;;;;;0.10;0.10;;;-1.90;99.90;;;-2.68;100.00;99846.50;4864796;29;20250;-74
2022/12/12 08:28:57;;;;;;;0.20;0.20;;;-2.40;99.90;;;-2.68;100.00;99843.03;4860094;29;20315;-74
2022/12/12 08:31:24;;;;;;;0.20;0.20;;;-2.40;99.90;;;-2.67;100.00;99844.81;4876339;29;20308;-75
2022/12/12 08:33:52;;;;;;;0.20;0.20;;;-2.40;99.90;;;-2.63;100.00;99855.41;4868683;29;20240;-75
2022/12/12 08:36:23;;;;;;;0.10;0.10;;;-2.30;99.90;;;-2.56;100.00;99855.75;4874323;29;20244;-75
2022/12/12 08:38:50;;;;;;;0.10;0.10;;;-2.30;99.90;;;-2.62;100.00;99852.00;4868202;29;20248;-75
2022/12/12 08:41:18;;;;;;;0.17;0.17;;;-2.30;99.90;;;-2.64;100.00;99845.84;4871790;29;20244;-74
2022/12/12 08:43:46;;;;;;;0.20;0.20;;;-2.30;99.90;;;-2.60;100.00;99863.34;4874768;29;20236;-75
2022/12/12 08:46:15;;;;;;;0.10;0.10;;;-1.80;99.90;;;-2.54;100.00;99864.47;4875795;29;20339;-75
2022/12/12 08:48:45;;;;;;;0.20;0.20;;;-2.30;99.90;;;-2.48;100.00;99872.56;4875147;29;20232;-75
2022/12/12 08:51:14;;;;;;;0.10;0.10;;;-2.20;99.90;;;-2.46;100.00;99879.59;4872594;29;20243;-76
2022/12/12 08:53:46;;;;;;;0.10;0.10;;;-2.20;99.90;;;-2.44;100.00;99874.50;4857233;29;20312;-75
2022/12/12 08:56:14;;;;;;;0.20;0.20;;;-2.20;99.90;;;-2.43;100.00;99869.41;4873062;29;20658;-75
2022/12/12 08:58:42;;;;;;;0.50;0.50;;;-2.10;99.90;;;-2.48;100.00;99868.28;4872744;29;20256;-75
2022/12/12 09:01:11;;;;;;;0.13;0.13;;;-2.20;99.90;;;-2.36;100.00;99871.47;4869193;29;20339;-75
2022/12/12 09:03:39;;;;;;;0.20;0.20;;;-2.10;99.90;;;-2.29;100.00;99885.63;4875739;29;20309;-75
2022/12/12 09:06:07;;;;;;;0.20;0.20;;;-2.00;99.90;;;-2.21;100.00;99888.63;4875596;29;20252;-75
2022/12/12 09:08:34;;;;;;;0.17;0.17;;;-2.00;99.90;;;-2.21;100.00;99896.38;4871411;29;20260;-75
2022/12/12 09:11:02;;;;;;;0.20;0.20;;;-2.00;99.90;;;-2.10;100.00;99901.28;4869230;29;20260;-76
2022/12/12 09:13:30;;;;;;;0.40;0.40;;;-1.90;99.90;;;-2.09;100.00;99897.00;4874828;29;20238;-76
2022/12/12 09:15:57;;;;;;;0.10;0.10;;;-1.80;99.90;;;-2.03;100.00;99905.97;4868635;29;20252;-75
2022/12/12 09:18:25;;;;;;;0.20;0.20;;;-1.80;99.90;;;-2.02;100.00;99901.69;4876106;29;20587;-76
2022/12/12 09:20:55;;;;;;;0.85;0.85;;;-1.80;99.90;;;-2.06;100.00;99900.63;4866987;29;20319;-75
2022/12/12 09:23:24;;;;;;;0.13;0.13;;;-1.00;99.90;;;-2.01;100.00;99904.34;4872551;29;20272;-76
2022/12/12 09:25:52;;;;;;;0.20;0.20;;;-1.70;99.90;;;-1.97;100.00;99902.78;4862801;29;20257;-75
2022/12/12 09:28:22;;;;;;;0.20;0.20;;;-1.70;99.90;;;-1.94;100.00;99906.44;4875557;29;20327;-75
2022/12/12 09:30:50;;;;;;;0.10;0.10;;;-1.70;99.90;;;-1.87;100.00;99910.22;4859400;29;20389;-75
2022/12/12 09:33:18;;;;;;;0.10;0.10;;;-1.00;99.90;;;-1.78;100.00;99909.78;4876064;29;20240;-75
2022/12/12 09:35:45;;;;;;;0.20;0.20;;;-1.50;99.90;;;-1.71;100.00;99912.75;4870454;29;20680;-76
2022/12/12 09:38:13;;;;;;;0.10;0.10;;;-0.50;99.90;;;-1.72;100.00;99913.56;4855652;29;20281;-75
2022/12/12 09:41:02;;;;;;;0.45;0.45;;;-1.40;99.90;;;-1.57;100.00;99917.72;4864716;29;20252;-76
2022/12/12 09:43:48;;;;;;;0.20;0.20;;;-1.40;99.90;;;-1.52;100.00;99919.72;4855834;29;20240;-76
2022/12/12 09:46:32;;;;;;;0.20;0.20;;;-1.30;99.90;;;-1.49;100.00;99924.16;4853552;29;20268;-75
2022/12/12 09:49:13;;;;;;;0.20;0.20;;;-0.70;99.90;;;-1.47;100.00;99914.75;4859182;29;20292;-75
2022/12/12 09:51:47;;;;;;;0.77;0.77;;;-1.20;99.90;;;-1.28;100.00;99930.41;4873370;29;20308;-77
2022/12/12 09:54:19;;;;;;;0.20;0.20;;;-0.80;99.90;;;-1.22;100.00;99922.91;4859225;29;20327;-75
2022/12/12 09:57:27;;;;;;;0.20;0.20;;;-1.00;99.90;;;-1.23;100.00;99918.53;4868352;29;20236;-76
2022/12/12 10:00:04;;;;;;;0.20;0.20;;;-0.90;99.90;;;-1.12;100.00;99911.28;4872845;29;21114;-75
2022/12/12 10:02:59;;;;;;;0.20;0.20;;;-0.90;99.90;;;-0.92;100.00;99927.75;4852913;29;20312;-76
2022/12/12 10:05:41;;;;;;;0.20;0.20;;;-0.70;99.90;;;-0.92;100.00;99912.19;4870421;29;20305;-75
2022/12/12 10:08:23;;;;;;;0.20;0.20;;;-0.70;99.90;;;-0.89;100.00;99910.63;4862946;29;20324;-75
2022/12/12 10:10:55;;;;;;;0.10;0.10;;;-0.60;99.90;;;-0.91;100.00;99908.78;4872792;29;20232;-75
2022/12/12 10:13:30;;;;;;;0.10;0.10;;;-0.60;99.90;;;-0.70;100.00;99918.44;4869641;29;20229;-76
2022/12/12 10:16:11;;;;;;;0.30;0.30;;;-0.50;99.90;;;-0.76;100.00;99912.06;4871865;29;20235;-76
2022/12/12 10:18:51;;;;;;;0.20;0.20;;;-0.30;99.90;;;-0.69;100.00;99915.00;4849374;29;20319;-75
2022/12/12 10:21:29;;;;;;;0.25;0.25;;;0.10;99.90;;;-0.78;100.00;99901.63;4861992;29;20244;-75
2022/12/12 10:24:22;;;;;;;0.20;0.20;;;-0.50;99.90;;;-0.80;100.00;99900.66;4866972;29;20292;-75
2022/12/12 10:26:49;;;;;;;0.20;0.20;;;-0.50;99.90;;;-0.58;100.00;99922.41;4867015;29;20281;-75
2022/12/12 10:29:22;;;;;;;0.15;0.15;;;-0.40;99.90;;;-0.61;100.00;99914.47;4877177;29;20252;-75
2022/12/12 10:32:14;;;;;;;0.10;0.10;;;-0.40;99.90;;;-0.49;100.00;99922.81;4872683;29;20228;-77
2022/12/12 10:34:50;;;;;;;0.20;0.20;;;-0.30;99.90;;;-0.45;100.00;99910.03;4856231;29;20232;-76
2022/12/12 10:37:51;;;;;;;0.30;0.30;;;-0.20;99.90;;;-0.53;100.00;99902.72;4875613;29;20303;-78
2022/12/12 10:40:33;;;;;;;0.20;0.20;;;-0.30;99.90;;;-0.53;100.00;99907.91;4862931;29;20247;-75
2022/12/12 10:43:35;;;;;;;0.20;0.20;;;-0.30;99.90;;;-0.62;100.00;99903.19;4874492;29;20260;-76
2022/12/12 10:46:24;;;;;;;0.10;0.10;;;-0.40;99.90;;;-0.63;100.00;99898.81;4872078;29;20236;-76
2022/12/12 10:48:52;;;;;;;0.20;0.20;;;-0.40;99.90;;;-0.67;100.00;99903.00;4871499;29;20285;-76
2022/12/12 10:51:23;;;;;;;0.20;0.20;;;0.30;99.90;;;-0.60;100.00;99905.84;4854589;29;20300;-76
2022/12/12 10:53:51;;;;;;;0.20;0.20;;;0.20;99.90;;;-0.66;100.00;99898.69;4860524;29;20237;-75
2022/12/12 10:56:25;;;;;;;0.20;0.20;;;-0.10;99.90;;;-0.69;100.00;99898.53;4871783;29;20228;-75
2022/12/12 10:59:00;;;;;;;0.20;0.20;;;-0.40;99.90;;;-0.66;100.00;99893.50;4868428;29;20228;-78
2022/12/12 11:01:35;;;;;;;0.10;0.10;;;-0.50;99.90;;;-0.65;100.00;99892.66;4873520;29;20262;-76
2022/12/12 11:04:22;;;;;;;0.20;0.20;;;-0.40;99.90;;;-0.58;100.00;99902.50;4857811;29;20311;-76